Latest Coastal Weather Observations for St Lawrence

IDQ60701

Issued at 6:45 pm EST Saturday 2 August 2014 (issued every 10 minutes, with the page automatically refreshed every 10 minutes)

About coastal observations | Map of coastal stations | Coastal observations for QLD | Marine services | Other Formats
Station Details ID: 033210 Name: ST LAWRENCE Lat: -22.35 Lon: 149.52 Height: 9.19 m
Data from the previous 72 hours. | See also: Recent months at St Lawrence
Date/Time
EST
Temp

°C
Wind Pressure Rain
since 9am
mm
Weather Cloud Vis
km
Sea
Height
m
Swell
Dir
 
Speed
knots
Gust
knots
hPa Trend Height
m
Period
s
Dir
02/06:30pm 19.4 SSE 5 6 1020.6 - 0.0 - - - - - - -
02/06:00pm 20.4 SSE 4 5 1020.2 - 0.0 - - - - - - -
02/05:30pm 22.1 SSE 5 8 1019.7 - 0.0 - - - - - - -
02/05:00pm 23.4 SSE 6 9 1019.3 - 0.0 - - - - - - -
02/04:30pm 24.0 SSE 8 12 1018.9 - 0.0 - - - - - - -
02/04:00pm 24.7 SSE 7 12 1018.7 - 0.0 - - - - - - -
02/03:30pm 24.6 SSE 9 13 1018.5 - 0.0 - - - - - - -
02/03:00pm 24.8 S 8 12 1018.5 - 0.0 - - - - - - -
02/02:30pm 24.7 SSE 8 12 1018.5 - 0.0 - - - - - - -
02/02:00pm 24.2 S 8 13 1018.8 - 0.0 - - - - - - -
02/01:30pm 24.4 S 9 14 1019.1 - 0.0 - - - - - - -
02/01:00pm 23.7 SSE 9 14 1019.6 - 0.0 - - - - - - -
02/12:30pm 23.2 SE 8 12 1019.9 - 0.0 - - - - - - -
02/12:00pm 22.8 SSE 10 17 1020.5 - 0.0 - - - - - - -
02/11:30am 22.3 SSE 10 16 1020.8 - 0.0 - - - - - - -
02/11:00am 21.8 S 10 16 1021.2 - 0.0 - - - - - - -
02/10:30am 21.1 SSE 11 18 1021.5 - 0.0 - - - - - - -
02/10:00am 20.1 SSE 12 18 1021.7 - 0.0 - - - - - - -
02/09:30am 19.6 S 12 17 1021.7 - 0.0 - - - - - - -
02/09:00am 18.9 S 13 23 1021.5 - 0.0 - - - - - - -
02/08:30am 18.1 S 11 17 1021.2 - 0.0 - - - - - - -
02/08:00am 16.7 S 9 15 1021.0 - 0.0 - - - - - - -
02/07:30am 16.0 S 9 14 1020.5 - 0.0 - - - - - - -
02/07:00am 15.3 S 8 11 1020.2 - 0.0 - - - - - - -
02/06:30am 15.0 S 7 10 1019.7 - 0.0 - - - - - - -
02/06:00am 15.0 S 5 8 1019.4 - 0.0 - - - - - - -
02/05:30am 16.1 S 7 10 1018.9 - 0.0 - - - - - - -
02/05:00am 16.9 S 7 11 1018.3 - 0.0 - - - - - - -
02/04:30am 16.6 S 9 13 1017.8 - 0.0 - - - - - - -
02/04:00am 15.5 WNW 3 5 1016.9 - 0.0 - - - - - - -
02/03:30am 15.7 CALM 0 0 1016.9 - 0.0 - - - - - - -
02/03:00am 15.5 SW 3 4 1017.0 - 0.0 - - - - - - -
02/02:30am 15.2 SW 2 4 1017.0 - 0.0 - - - - - - -
02/02:00am 15.0 S 3 5 1017.2 - 0.0 - - - - - - -
02/01:30am 14.7 S 3 4 1017.4 - 0.0 - - - - - - -
02/01:00am 14.6 SW 3 4 1017.5 - 0.0 - - - - - - -
02/12:30am 14.5 SW 1 3 1017.5 - 0.0 - - - - - - -
02/12:00am 14.5 WSW 3 4 1017.6 - 0.0 - - - - - - -
 
Date/Time
EST
Temp

°C
Wind Pressure Rain
since 9am
mm
Weather Cloud Vis
km
Sea
Height
m
Swell
Dir
 
Speed
knots
Gust
knots
hPa Trend Height
m
Period
s
Dir
01/11:30pm 14.6 CALM 0 4 1017.7 - 0.0 - - - - - - -
01/11:00pm 14.8 CALM 0 0 1017.7 - 0.0 - - - - - - -
01/10:30pm 16.3 SE 4 5 1017.8 - 0.0 - - - - - - -
01/10:00pm 16.7 S 4 5 1017.8 - 0.0 - - - - - - -
01/09:30pm 16.7 N 1 4 1017.5 - 0.0 - - - - - - -
01/09:00pm 18.2 CALM 0 3 1017.3 - 0.0 - - - - - - -
01/08:30pm 18.6 NE 4 5 1017.1 - 0.0 - - - - - - -
01/08:00pm 19.1 NE 4 6 1017.0 - 0.0 - - - - - - -
01/07:30pm 19.8 NE 4 6 1016.9 - 0.0 - - - - - - -
01/07:00pm 19.6 NE 4 5 1016.4 - 0.0 - - - - - - -
01/06:30pm 20.0 NE 5 7 1015.9 - 0.0 - - - - - - -
01/06:00pm 20.6 ENE 4 6 1015.4 - 0.0 - - - - - - -
01/05:30pm 21.7 NNE 7 11 1015.0 - 0.0 - - - - - - -
01/05:00pm 22.3 NNE 8 11 1014.7 - 0.0 - - - - - - -
01/04:30pm 22.8 NE 9 12 1014.6 - 0.0 - - - - - - -
01/04:00pm 23.5 NNE 10 15 1014.5 - 0.0 - - - - - - -
01/03:30pm 24.8 NE 9 14 1014.5 - 0.0 - - - - - - -
01/03:00pm 23.4 NE 9 11 1014.7 - 0.0 - - - - - - -
01/02:30pm 23.2 NE 9 11 1015.0 - 0.0 - - - - - - -
01/02:00pm 23.7 NE 9 12 1015.4 - 0.0 - - - - - - -
01/01:30pm 23.9 NE 10 13 1015.7 - 0.0 - - - - - - -
01/01:00pm 23.1 NE 9 13 1016.1 - 0.0 - - - - - - -
01/12:30pm 23.2 NE 10 13 1016.5 - 0.0 - - - - - - -
01/12:00pm 23.3 NNE 9 13 1017.0 - 0.0 - - - - - - -
01/11:30am 24.5 NE 8 12 1017.6 - 0.0 - - - - - - -
01/11:00am 24.7 NE 4 7 1018.0 - 0.0 - - - - - - -
01/10:30am 23.6 NNW 3 6 1018.6 - 0.0 - - - - - - -
01/10:00am 22.7 N 3 5 1018.8 - 0.0 - - - - - - -
01/09:30am 21.3 NNW 3 4 1019.0 - 0.0 - - - - - - -
01/09:00am 20.8 CALM 0 0 1019.0 - 0.0 - - - - - - -
01/08:30am 18.3 SSW 2 3 1018.9 - 0.0 - - - - - - -
01/08:00am 15.9 CALM 0 2 1018.5 - 0.0 - - - - - - -
01/07:30am 15.3 CALM 0 0 1018.2 - 0.0 - - - - - - -
01/07:00am 14.5 S 3 4 1017.9 - 0.0 - - - - - - -
01/06:30am 13.4 SSW 2 4 1017.8 - 0.0 - - - - - - -
01/06:00am 13.7 CALM 0 0 1017.4 - 0.0 - - - - - - -
01/05:30am 14.4 CALM 0 0 1017.1 - 0.0 - - - - - - -
01/05:00am 15.1 CALM 0 1 1017.0 - 0.0 - - - - - - -
01/04:30am 15.3 CALM 0 0 1017.1 - 0.0 - - - - - - -
01/04:00am 15.7 CALM 0 0 1016.9 - 0.0 - - - - - - -
01/03:30am 15.7 CALM 0 0 1017.0 - 0.0 - - - - - - -
01/03:00am 15.8 CALM 0 0 1017.2 - 0.0 - - - - - - -
01/02:30am 15.6 CALM 0 0 1017.4 - 0.0 - - - - - - -
01/02:00am 15.4 CALM 0 0 1017.6 - 0.0 - - - - - - -
01/01:30am 15.2 CALM 0 0 1017.7 - 0.0 - - - - - - -
01/01:00am 14.8 CALM 0 0 1017.8 - 0.0 - - - - - - -
01/12:30am 14.9 CALM 0 0 1018.0 - 0.0 - - - - - - -
01/12:00am 15.1 CALM 0 1 1018.1 - 0.0 - - - - - - -
 
Date/Time
EST
Temp

°C
Wind Pressure Rain
since 9am
mm
Weather Cloud Vis
km
Sea
Height
m
Swell
Dir
 
Speed
knots
Gust
knots
hPa Trend Height
m
Period
s
Dir
31/11:30pm 14.9 CALM 0 3 1018.3 - 0.0 - - - - - - -
31/11:00pm 15.6 CALM 0 0 1018.3 - 0.0 - - - - - - -
31/10:30pm 15.8 WSW 2 5 1018.5 - 0.0 - - - - - - -
31/10:00pm 15.9 CALM 0 0 1018.5 - 0.0 - - - - - - -
31/09:30pm 16.2 CALM 0 0 1018.5 - 0.0 - - - - - - -
31/09:00pm 17.1 CALM 0 0 1018.5 - 0.0 - - - - - - -
31/08:30pm 17.9 CALM 0 0 1018.3 - 0.0 - - - - - - -
31/08:00pm 18.8 NNE 1 4 1018.2 - 0.0 - - - - - - -
31/07:30pm 18.9 ENE 4 6 1017.9 - 0.0 - - - - - - -
31/07:00pm 19.9 ENE 3 6 1017.4 - 0.0 - - - - - - -
31/06:30pm 20.6 NE 5 6 1017.1 - 0.0 - - - - - - -
31/06:00pm 21.0 NNE 5 7 1017.1 - 0.0 - - - - - - -
31/05:30pm 21.5 NNE 7 10 1017.2 - 0.0 - - - - - - -
31/05:00pm 22.1 NNE 6 9 1017.0 - 0.0 - - - - - - -
31/04:30pm 22.8 NNE 6 8 1016.9 - 0.0 - - - - - - -
31/04:00pm 22.9 NNE 7 11 1016.9 - 0.0 - - - - - - -
31/03:30pm 23.4 N 7 11 1016.8 - 0.0 - - - - - - -
31/03:00pm 22.9 NNE 9 11 1017.0 - 0.0 - - - - - - -
31/02:30pm 23.5 NNE 8 10 1017.3 - 0.0 - - - - - - -
31/02:00pm 23.2 NNE 7 9 1017.5 - 0.0 - - - - - - -
31/01:30pm 23.0 NNE 7 9 1018.0 - 0.0 - - - - - - -
31/01:00pm 23.4 NNE 6 9 1018.5 - 0.0 - - - - - - -
31/12:30pm 22.7 NNE 7 10 1018.9 - 0.0 - - - - - - -
31/12:00pm 22.7 NNE 8 11 1019.6 - 0.0 - - - - - - -
31/11:30am 22.5 NNE 6 9 1020.0 - 0.0 - - - - - - -
31/11:00am 22.4 NNE 6 9 1020.5 - 0.0 - - - - - - -
31/10:30am 22.4 ENE 4 6 1020.7 - 0.0 - - - - - - -
31/10:00am 21.5 S 4 6 1020.8 - 0.0 - - - - - - -
31/09:30am 20.6 S 4 7 1021.0 - 0.0 - - - - - - -
31/09:00am 18.9 SSW 1 4 1020.8 - 0.0 - - - - - - -
31/08:30am 16.9 S 4 7 1020.9 - 0.0 - - - - - - -
31/08:00am 14.7 S 6 8 1020.8 - 0.0 - - - - - - -
31/07:30am 12.3 SSW 4 6 1020.7 - 0.0 - - - - - - -
31/07:00am 10.5 SSW 3 5 1020.7 - 0.0 - - - - - - -
31/06:30am 11.4 S 5 6 1020.3 - 0.0 - - - - - - -
31/06:00am 11.4 S 3 4 1020.2 - 0.0 - - - - - - -
31/05:30am 10.2 CALM 0 3 1020.0 - 0.0 - - - - - - -
31/05:00am 11.0 CALM 0 0 1019.8 - 0.0 - - - - - - -
31/04:30am 11.3 WSW 1 3 1019.6 - 0.0 - - - - - - -
31/04:00am 11.7 SW 1 3 1019.6 - 0.0 - - - - - - -
31/03:30am 11.8 SW 3 4 1019.8 - 0.0 - - - - - - -
31/03:00am 12.1 SW 1 4 1019.8 - 0.0 - - - - - - -
31/02:30am 12.5 SW 1 3 1019.9 - 0.0 - - - - - - -
31/02:00am 12.9 SW 3 4 1020.2 - 0.0 - - - - - - -
31/01:30am 13.7 WSW 2 5 1020.5 - 0.0 - - - - - - -
31/01:00am 12.3 SW 3 4 1020.7 - 0.0 - - - - - - -
31/12:30am 12.2 SW 3 4 1020.7 - 0.0 - - - - - - -
31/12:00am 12.0 WSW 3 4 1020.7 - 0.0 - - - - - - -
 
Date/Time
EST
Temp

°C
Wind Pressure Rain
since 9am
mm
Weather Cloud Vis
km
Sea
Height
m
Swell
Dir
 
Speed
knots
Gust
knots
hPa Trend Height
m
Period
s
Dir
30/11:30pm 12.6 SSW 3 4 1020.9 - 0.0 - - - - - - -
30/11:00pm 15.0 S 5 6 1021.0 - 0.0 - - - - - - -
30/10:30pm 15.2 S 5 6 1020.9 - 0.0 - - - - - - -
30/10:00pm 15.5 S 5 6 1020.8 - 0.0 - - - - - - -
30/09:30pm 14.5 CALM 0 0 1020.6 - 0.0 - - - - - - -
30/09:00pm 15.0 S 3 5 1020.6 - 0.0 - - - - - - -
30/08:30pm 16.0 CALM 0 0 1020.6 - 0.0 - - - - - - -
30/08:00pm 16.6 N 1 4 1020.2 - 0.0 - - - - - - -
30/07:30pm 18.3 N 4 6 1019.9 - 0.0 - - - - - - -
30/07:00pm 18.7 N 7 10 1019.6 - 0.0 - - - - - - -

Other Formats:

Comma delimited format used in spreadsheet applications
http://www.bom.gov.au/fwo/IDQ60701/IDQ60701.95369.axf

JavaScript Object Notation format (JSON) in row-major order
http://www.bom.gov.au/fwo/IDQ60701/IDQ60701.95369.json